createdAt,value
2023-08-08T00:00:47.119Z,1.13
2023-08-08T00:05:48.847Z,1.10
2023-08-08T00:10:50.440Z,1.20
2023-08-08T00:15:52.072Z,1.00
2023-08-08T00:20:54.338Z,1.70
2023-08-08T00:25:55.997Z,1.00
2023-08-08T00:30:57.672Z,1.27
2023-08-08T00:35:59.321Z,1.40
2023-08-08T00:41:02.000Z,1.00
2023-08-08T00:46:03.850Z,1.20
2023-08-08T00:51:06.500Z,1.33
2023-08-08T00:56:08.193Z,1.00
2023-08-08T01:01:10.872Z,1.40
2023-08-08T01:06:28.429Z,1.10
2023-08-08T01:11:39.621Z,0.80
2023-08-08T01:16:42.116Z,1.30
2023-08-08T01:21:44.573Z,1.20
2023-08-08T01:26:47.201Z,1.40
2023-08-08T01:31:50.058Z,1.30
2023-08-08T01:37:16.010Z,1.20
2023-08-08T01:42:19.464Z,1.20
2023-08-08T01:47:21.104Z,1.30
2023-08-08T01:52:23.939Z,1.40
2023-08-08T01:57:25.599Z,1.30
2023-08-08T02:02:27.805Z,1.30
2023-08-08T02:07:29.545Z,1.30
2023-08-08T02:12:31.648Z,1.23
2023-08-08T02:17:34.910Z,1.23
2023-08-08T02:22:36.665Z,1.40
2023-08-08T02:27:38.830Z,1.40
2023-08-08T02:32:40.514Z,1.43
2023-08-08T02:37:42.379Z,1.60
2023-08-08T02:42:44.998Z,1.60
2023-08-08T02:47:46.735Z,1.70
2023-08-08T02:52:50.866Z,1.50
2023-08-08T02:57:55.395Z,1.50
2023-08-08T03:02:57.767Z,1.20
2023-08-08T03:08:00.265Z,1.13
2023-08-08T03:13:03.045Z,1.40
2023-08-08T03:18:05.313Z,1.33
2023-08-08T03:23:07.520Z,1.37
2023-08-08T03:28:09.664Z,1.37
2023-08-08T03:33:12.048Z,1.30
2023-08-08T03:38:14.145Z,1.10
2023-08-08T03:43:16.004Z,1.27
2023-08-08T03:48:17.737Z,1.37
2023-08-08T03:53:20.467Z,1.07
2023-08-08T03:58:22.390Z,1.40
2023-08-08T04:03:24.527Z,1.40
2023-08-08T04:08:26.221Z,1.50
2023-08-08T04:13:27.815Z,1.23
2023-08-08T04:18:29.434Z,1.47
2023-08-08T04:23:31.046Z,1.30
2023-08-08T04:28:32.994Z,1.30
2023-08-08T04:33:34.604Z,1.37
2023-08-08T04:38:36.214Z,1.33
2023-08-08T04:43:37.778Z,1.73
2023-08-08T04:48:47.575Z,1.50
2023-08-08T04:53:49.272Z,1.60
2023-08-08T04:58:50.844Z,1.40
2023-08-08T05:03:54.663Z,1.50
2023-08-08T05:08:58.807Z,1.33
2023-08-08T05:14:01.219Z,1.30
2023-08-08T05:19:02.857Z,1.30
2023-08-08T05:24:04.836Z,1.30
2023-08-08T05:29:06.498Z,1.40
2023-08-08T05:34:08.451Z,1.30
2023-08-08T05:39:10.778Z,1.10
2023-08-08T05:44:12.462Z,1.50
2023-08-08T05:49:14.090Z,1.20
2023-08-08T05:54:15.693Z,1.60
2023-08-08T05:59:17.351Z,1.40
2023-08-08T06:04:19.063Z,1.90
2023-08-08T06:09:20.835Z,2.00
2023-08-08T06:14:22.514Z,1.67
2023-08-08T06:19:24.800Z,1.40
2023-08-08T06:24:27.373Z,1.77
2023-08-08T06:29:29.137Z,1.20
2023-08-08T06:34:30.992Z,1.63
2023-08-08T06:39:33.025Z,1.50
2023-08-08T06:44:42.371Z,1.57
2023-08-08T06:49:44.120Z,1.50
2023-08-08T06:54:46.179Z,1.80
2023-08-08T06:59:51.667Z,2.00
2023-08-08T07:04:53.336Z,1.83
2023-08-08T07:09:54.974Z,1.50
2023-08-08T07:14:56.696Z,1.83
2023-08-08T07:19:58.423Z,1.70
2023-08-08T07:25:00.791Z,1.07
2023-08-08T07:30:04.087Z,1.27
2023-08-08T07:35:07.140Z,1.10
2023-08-08T07:40:16.556Z,1.20
2023-08-08T07:45:18.368Z,1.40
2023-08-08T07:50:19.993Z,1.20
2023-08-08T07:55:21.598Z,1.00
2023-08-08T08:00:23.225Z,1.00
2023-08-08T08:05:25.163Z,1.10
2023-08-08T08:10:27.127Z,1.13
2023-08-08T08:15:29.424Z,1.43
2023-08-08T08:20:31.116Z,1.30
2023-08-08T08:25:33.344Z,0.90
2023-08-08T08:30:35.010Z,1.37
2023-08-08T08:35:37.675Z,1.00
2023-08-08T08:40:42.746Z,1.33
2023-08-08T08:45:49.760Z,1.20
2023-08-08T08:50:51.989Z,1.13
2023-08-08T08:55:54.924Z,1.30
2023-08-08T09:00:56.981Z,1.37
2023-08-08T09:05:59.766Z,1.60
2023-08-08T09:11:01.613Z,1.50
2023-08-08T09:16:03.347Z,1.40
2023-08-08T09:21:05.968Z,1.20
2023-08-08T09:26:07.748Z,1.50
2023-08-08T09:31:09.424Z,1.50
2023-08-08T09:36:17.300Z,1.20
2023-08-08T09:41:18.976Z,1.30
2023-08-08T09:46:21.699Z,1.07
2023-08-08T09:51:23.649Z,1.10
2023-08-08T09:56:26.370Z,1.00
2023-08-08T10:01:28.624Z,0.90
2023-08-08T10:06:32.703Z,1.33
2023-08-08T10:11:34.920Z,1.40
2023-08-08T10:16:38.698Z,0.90
2023-08-08T10:21:44.477Z,1.17
2023-08-08T10:26:54.470Z,0.70
2023-08-08T10:32:04.845Z,1.10
2023-08-08T10:37:10.094Z,1.07
2023-08-08T10:42:19.313Z,1.03
2023-08-08T10:47:35.368Z,0.70
2023-08-08T10:52:53.766Z,0.90
2023-08-08T10:57:57.959Z,0.90
2023-08-08T11:03:00.893Z,0.80
2023-08-08T11:08:03.913Z,1.00
2023-08-08T11:13:07.383Z,0.90
2023-08-08T11:18:10.254Z,0.83
2023-08-08T11:23:13.482Z,1.20
2023-08-08T11:28:16.276Z,0.87
2023-08-08T11:33:19.853Z,0.70
2023-08-08T11:38:21.509Z,0.80
2023-08-08T11:43:23.578Z,1.10
2023-08-08T11:48:25.486Z,0.80
2023-08-08T11:53:27.187Z,0.73
2023-08-08T11:58:29.252Z,1.00
2023-08-08T12:03:31.008Z,0.80
2023-08-08T12:08:34.270Z,0.87
2023-08-08T12:13:38.392Z,0.90
2023-08-08T12:18:41.106Z,0.70
2023-08-08T12:23:42.951Z,0.80
2023-08-08T12:28:44.636Z,0.93
2023-08-08T12:33:46.757Z,1.13
2023-08-08T12:38:48.451Z,0.77
2023-08-08T12:43:51.006Z,0.80
2023-08-08T12:48:52.713Z,1.00
2023-08-08T12:53:54.387Z,1.10
2023-08-08T12:58:56.079Z,1.00
2023-08-08T13:04:18.242Z,1.00
2023-08-08T13:09:19.750Z,1.33
2023-08-08T13:14:21.550Z,1.00
2023-08-08T13:19:26.047Z,0.97
2023-08-08T13:24:27.737Z,0.83
2023-08-08T13:29:29.562Z,1.30
2023-08-08T13:34:31.404Z,1.20
2023-08-08T13:39:34.092Z,1.20
2023-08-08T13:44:35.862Z,1.33
2023-08-08T13:49:38.081Z,1.40
2023-08-08T13:54:40.599Z,1.20
2023-08-08T13:59:42.632Z,1.20
2023-08-08T14:04:44.336Z,1.30
2023-08-08T14:09:45.955Z,1.57
2023-08-08T14:14:47.668Z,0.93
2023-08-08T14:19:49.311Z,0.90
2023-08-08T14:24:51.064Z,1.10
2023-08-08T14:29:52.633Z,1.10
2023-08-08T14:34:54.731Z,1.50
2023-08-08T14:39:57.066Z,1.10
2023-08-08T14:44:58.724Z,0.87
2023-08-08T14:50:01.028Z,0.97
2023-08-08T14:55:03.045Z,0.80
2023-08-08T15:00:07.504Z,0.90
2023-08-08T15:05:09.387Z,0.73
2023-08-08T15:10:11.197Z,0.93
2023-08-08T15:15:13.676Z,0.90
2023-08-08T15:20:15.528Z,1.10
2023-08-08T15:25:18.586Z,1.33
2023-08-08T15:30:20.428Z,0.97
2023-08-08T15:35:22.158Z,1.10
2023-08-08T15:40:24.006Z,1.13
2023-08-08T15:45:26.736Z,0.90
2023-08-08T15:50:28.449Z,1.10
2023-08-08T15:55:30.112Z,0.77
2023-08-08T16:00:31.743Z,1.00
2023-08-08T16:05:33.430Z,0.80
2023-08-08T16:10:36.130Z,1.10
2023-08-08T16:15:37.924Z,0.83
2023-08-08T16:20:39.559Z,0.97
2023-08-08T16:25:41.108Z,1.10
2023-08-08T16:30:42.713Z,1.20
2023-08-08T16:35:45.022Z,1.00
2023-08-08T16:40:46.950Z,0.80
2023-08-08T16:45:48.684Z,0.87
2023-08-08T16:50:51.204Z,1.10
2023-08-08T16:55:52.862Z,1.00
2023-08-08T17:00:55.318Z,0.90
2023-08-08T17:05:57.161Z,1.00
2023-08-08T17:10:58.787Z,1.10
2023-08-08T17:16:00.535Z,0.90
2023-08-08T17:21:02.486Z,1.00
2023-08-08T17:26:04.784Z,1.10
2023-08-08T17:31:06.627Z,1.10
2023-08-08T17:36:08.357Z,1.37
2023-08-08T17:41:09.979Z,0.90
2023-08-08T17:46:11.694Z,1.00
2023-08-08T17:51:13.529Z,1.13
2023-08-08T17:56:15.446Z,0.80
2023-08-08T18:01:17.232Z,0.90
2023-08-08T18:06:18.995Z,1.03
2023-08-08T18:11:20.643Z,1.00
2023-08-08T18:16:22.493Z,0.80
2023-08-08T18:21:24.247Z,0.80
2023-08-08T18:26:25.859Z,0.80
2023-08-08T18:31:27.505Z,1.03
2023-08-08T18:36:29.806Z,1.00
2023-08-08T18:41:31.400Z,1.00
2023-08-08T18:46:34.672Z,1.00
2023-08-08T18:51:36.282Z,0.70
2023-08-08T18:56:42.200Z,0.90
2023-08-08T19:01:43.831Z,0.70
2023-08-08T19:06:45.469Z,0.83
2023-08-08T19:11:47.193Z,0.97
2023-08-08T19:16:48.919Z,1.10
2023-08-08T19:21:50.496Z,1.00
2023-08-08T19:26:52.143Z,0.90
2023-08-08T19:31:53.821Z,1.00
2023-08-08T19:36:55.526Z,0.70
2023-08-08T19:41:57.221Z,0.97
2023-08-08T19:47:00.972Z,0.70
2023-08-08T19:52:03.870Z,1.27
2023-08-08T19:57:05.536Z,1.00
2023-08-08T20:02:08.022Z,1.00
2023-08-08T20:07:09.709Z,0.70
2023-08-08T20:12:11.373Z,0.90
2023-08-08T20:17:13.236Z,0.83
2023-08-08T20:22:14.933Z,1.10
2023-08-08T20:27:16.651Z,0.93
2023-08-08T20:32:18.303Z,0.90
2023-08-08T20:37:20.080Z,0.87
2023-08-08T20:42:21.701Z,0.70
2023-08-08T20:47:23.337Z,0.83
2023-08-08T20:52:25.299Z,1.00
2023-08-08T20:57:27.215Z,0.90
2023-08-08T21:02:29.074Z,0.90
2023-08-08T21:07:30.838Z,1.00
2023-08-08T21:12:32.470Z,0.90
2023-08-08T21:17:34.229Z,1.10
2023-08-08T21:22:35.936Z,1.50
2023-08-08T21:27:39.039Z,1.30
2023-08-08T21:32:40.809Z,0.97
2023-08-08T21:37:42.652Z,1.10
2023-08-08T21:42:44.342Z,1.30
2023-08-08T21:47:46.040Z,1.37
2023-08-08T21:52:47.828Z,1.40
2023-08-08T21:57:49.566Z,1.47
2023-08-08T22:02:51.301Z,1.13
2023-08-08T22:07:53.634Z,1.53
2023-08-08T22:12:55.935Z,1.50
2023-08-08T22:18:11.270Z,1.37
2023-08-08T22:23:19.679Z,1.13
2023-08-08T22:28:22.420Z,1.40
2023-08-08T22:33:24.142Z,1.23
2023-08-08T22:38:25.838Z,1.43
2023-08-08T22:43:27.439Z,1.30
2023-08-08T22:48:29.190Z,1.20
2023-08-08T22:53:30.871Z,1.50
2023-08-08T22:58:32.603Z,1.30
2023-08-08T23:03:34.309Z,1.43
2023-08-08T23:08:36.374Z,1.60
2023-08-08T23:13:38.102Z,1.27
2023-08-08T23:18:40.818Z,1.60
2023-08-08T23:23:43.001Z,1.30
2023-08-08T23:28:44.707Z,1.30
2023-08-08T23:33:47.830Z,1.40
2023-08-08T23:38:49.550Z,1.50
2023-08-08T23:43:51.161Z,1.30
2023-08-08T23:48:52.987Z,1.10
2023-08-08T23:53:56.022Z,1.17
2023-08-08T23:58:57.672Z,1.30
